Time;durP1;ratioP1;P1;durP2;ratioP2;P2;SDS_P1;SDS_P2;PMS_P1;PMS_P2;Temp;Humidity;BMP_temperature;BMP_pressure;BME280_temperature;BME280_humidity;BME280_pressure;Samples;Min_cycle;Max_cycle;Signal;HPM_P1;HPM_P2
2023/03/13 00:01:00;;;;;;;32.60;14.23;;;-1.30;99.90;;;;;;4229951;28;20779;-62
2023/03/13 00:03:02;;;;;;;26.30;12.67;;;-1.30;99.90;;;;;;4245517;27;20823;-63
2023/03/13 00:05:03;;;;;;;30.70;12.97;;;-1.30;99.90;;;;;;4240113;27;20832;-64
2023/03/13 00:07:04;;;;;;;46.53;16.03;;;-1.30;99.90;;;;;;4234832;27;20312;-63
2023/03/13 00:09:08;;;;;;;31.93;15.27;;;-1.30;99.90;;;;;;4246796;27;20263;-63
2023/03/13 00:11:11;;;;;;;37.60;14.80;;;-1.30;99.90;;;;;;4247550;27;20259;-63
2023/03/13 00:13:12;;;;;;;35.10;15.03;;;-1.40;99.90;;;;;;4247814;27;20665;-64
2023/03/13 00:15:13;;;;;;;39.37;15.07;;;-1.40;99.90;;;;;;4247155;27;20336;-63
2023/03/13 00:17:15;;;;;;;32.80;14.20;;;-1.40;99.90;;;;;;4247362;27;20255;-64
2023/03/13 00:19:16;;;;;;;32.63;14.37;;;-1.40;99.90;;;;;;4247139;27;20731;-64
2023/03/13 00:21:20;;;;;;;36.67;16.90;;;-1.50;99.90;;;;;;4247847;27;20347;-65
2023/03/13 00:23:22;;;;;;;30.47;14.63;;;-1.50;99.90;;;;;;4244666;27;20316;-65
2023/03/13 00:25:23;;;;;;;31.03;14.73;;;-1.50;99.90;;;;;;4247674;27;20272;-64
2023/03/13 00:27:24;;;;;;;31.20;14.23;;;-1.50;99.90;;;;;;4245671;27;20296;-64
2023/03/13 00:29:25;;;;;;;34.27;15.73;;;-1.60;99.90;;;;;;4247747;27;20324;-64
2023/03/13 00:31:29;;;;;;;36.43;15.27;;;-1.60;99.90;;;;;;4245675;27;20303;-65
2023/03/13 00:33:33;;;;;;;36.40;16.33;;;-1.60;99.90;;;;;;4242247;27;20339;-65
2023/03/13 00:35:35;;;;;;;34.03;15.70;;;-1.70;99.90;;;;;;4244436;27;20376;-65
2023/03/13 00:37:36;;;;;;;34.17;15.43;;;-1.70;99.90;;;;;;4247432;27;20313;-64
2023/03/13 00:39:38;;;;;;;29.93;14.33;;;-1.70;99.90;;;;;;4240075;27;20280;-64
2023/03/13 00:41:39;;;;;;;32.77;14.17;;;-1.70;99.90;;;;;;4230419;28;20296;-64
2023/03/13 00:43:42;;;;;;;30.30;14.57;;;-1.70;99.90;;;;;;4228765;27;20252;-64
2023/03/13 00:45:43;;;;;;;33.00;14.27;;;-1.70;99.90;;;;;;4242304;27;20676;-64
2023/03/13 00:47:45;;;;;;;25.53;12.33;;;-1.60;99.90;;;;;;4235822;27;20349;-64
2023/03/13 00:49:46;;;;;;;25.33;11.17;;;-1.60;99.90;;;;;;4229345;27;20264;-69
2023/03/13 00:51:47;;;;;;;28.47;10.90;;;-1.60;99.90;;;;;;4230301;27;20785;-65
2023/03/13 00:53:48;;;;;;;33.27;14.27;;;-1.60;99.90;;;;;;4229187;28;20353;-64
2023/03/13 00:55:57;;;;;;;31.07;14.03;;;-1.60;99.90;;;;;;4230046;28;20268;-64
2023/03/13 00:57:58;;;;;;;26.00;12.50;;;-1.70;99.90;;;;;;4229163;28;20317;-69
2023/03/13 00:59:59;;;;;;;26.13;13.20;;;-1.70;99.90;;;;;;4230355;28;20643;-73
2023/03/13 01:02:00;;;;;;;27.63;13.07;;;-1.80;99.90;;;;;;4229080;28;20291;-73
2023/03/13 01:04:04;;;;;;;28.97;13.10;;;-1.90;99.90;;;;;;4230078;28;20765;-69
2023/03/13 01:06:08;;;;;;;31.37;13.53;;;-1.80;99.90;;;;;;4228623;28;20670;-64
2023/03/13 01:08:09;;;;;;;27.13;12.93;;;-1.90;99.90;;;;;;4230306;27;20811;-64
2023/03/13 01:10:10;;;;;;;31.23;13.93;;;-1.90;99.90;;;;;;4229584;27;20360;-67
2023/03/13 01:12:11;;;;;;;32.53;13.97;;;-1.90;99.90;;;;;;4242562;27;20684;-68
2023/03/13 01:14:16;;;;;;;28.97;13.20;;;-1.90;99.90;;;;;;4246099;27;20736;-64
2023/03/13 01:16:19;;;;;;;25.37;13.30;;;-1.90;99.90;;;;;;4247229;27;20271;-64
2023/03/13 01:18:21;;;;;;;22.67;12.70;;;-1.80;99.90;;;;;;4245859;27;20256;-64
2023/03/13 01:20:22;;;;;;;27.37;13.33;;;-1.90;99.90;;;;;;4246412;27;20573;-63
2023/03/13 01:22:23;;;;;;;26.53;11.90;;;-1.90;99.90;;;;;;4245868;27;20287;-64
2023/03/13 01:24:24;;;;;;;28.47;13.43;;;-1.90;99.90;;;;;;4244607;27;20275;-72
2023/03/13 01:26:26;;;;;;;28.80;13.13;;;-1.90;99.90;;;;;;4236098;27;20321;-63
2023/03/13 01:28:27;;;;;;;26.07;12.00;;;-1.90;99.90;;;;;;4228689;28;20735;-73
2023/03/13 01:30:28;;;;;;;27.63;13.60;;;-1.90;99.90;;;;;;4229824;27;20292;-63
2023/03/13 01:32:32;;;;;;;31.70;13.13;;;-1.90;99.90;;;;;;4228508;28;20275;-63
2023/03/13 01:34:33;;;;;;;27.17;14.23;;;-2.00;99.90;;;;;;4228382;27;20694;-65
2023/03/13 01:36:36;;;;;;;31.47;14.40;;;-2.00;99.90;;;;;;4230358;27;20276;-74
2023/03/13 01:38:38;;;;;;;27.93;14.43;;;-2.00;99.90;;;;;;4237474;27;20275;-68
2023/03/13 01:40:45;;;;;;;24.03;12.50;;;-2.00;99.90;;;;;;4245476;27;20263;-68
2023/03/13 01:42:55;;;;;;;26.03;12.43;;;-2.00;99.90;;;;;;4247042;27;20681;-71
2023/03/13 01:44:57;;;;;;;27.00;11.30;;;-2.00;99.90;;;;;;4244952;27;20275;-66
2023/03/13 01:46:58;;;;;;;23.70;12.13;;;-2.00;99.90;;;;;;4244631;27;20279;-63
2023/03/13 01:49:04;;;;;;;30.93;13.03;;;-2.00;99.90;;;;;;4245304;27;20267;-65
2023/03/13 01:51:13;;;;;;;25.97;13.17;;;-2.00;99.90;;;;;;4246358;27;20665;-66
2023/03/13 01:53:14;;;;;;;26.13;12.73;;;-2.10;99.90;;;;;;4245162;27;20297;-66
2023/03/13 01:55:16;;;;;;;24.03;11.57;;;-2.10;99.90;;;;;;4246347;27;20268;-73
2023/03/13 01:57:25;;;;;;;23.83;11.53;;;-2.10;99.90;;;;;;4245246;27;20240;-64
2023/03/13 01:59:34;;;;;;;24.67;11.73;;;-2.10;99.90;;;;;;4246209;27;20735;-72
2023/03/13 02:01:35;;;;;;;24.30;11.87;;;-2.10;99.90;;;;;;4245066;27;20295;-64
2023/03/13 02:03:37;;;;;;;27.57;12.57;;;-2.10;99.90;;;;;;4245864;27;20271;-64
2023/03/13 02:05:41;;;;;;;24.07;11.90;;;-2.10;99.90;;;;;;4245274;27;20255;-74
2023/03/13 02:07:52;;;;;;;24.27;11.50;;;-2.10;99.90;;;;;;4245487;27;20312;-63
2023/03/13 02:09:55;;;;;;;23.47;11.07;;;-2.10;99.90;;;;;;4243420;27;20296;-64
2023/03/13 02:11:59;;;;;;;29.47;11.47;;;-2.10;99.90;;;;;;4228513;27;20088;-65
2023/03/13 02:14:02;;;;;;;23.20;11.40;;;-2.10;99.90;;;;;;4229707;27;20260;-71
2023/03/13 02:16:06;;;;;;;20.20;10.03;;;-2.10;99.90;;;;;;4232848;27;20252;-72
2023/03/13 02:18:07;;;;;;;23.63;10.80;;;-2.20;99.90;;;;;;4245667;27;20267;-74
2023/03/13 02:20:10;;;;;;;23.10;10.80;;;-2.20;99.90;;;;;;4244641;27;20375;-65
2023/03/13 02:22:34;;;;;;;25.63;10.23;;;-2.20;99.90;;;;;;4246016;27;20294;-73
2023/03/13 02:24:57;;;;;;;23.23;11.17;;;-2.20;99.90;;;;;;4242943;27;20299;-64
2023/03/13 02:26:58;;;;;;;23.43;11.20;;;-2.20;99.90;;;;;;4245253;27;20661;-65
2023/03/13 02:29:00;;;;;;;24.90;10.10;;;-2.10;99.90;;;;;;4244824;27;20645;-65
2023/03/13 02:31:01;;;;;;;21.83;10.50;;;-2.20;99.90;;;;;;4245707;27;20653;-67
2023/03/13 02:33:03;;;;;;;23.27;10.50;;;-2.20;99.90;;;;;;4244461;27;21087;-66
2023/03/13 02:35:08;;;;;;;21.10;10.50;;;-2.20;99.90;;;;;;4245669;27;20267;-65
2023/03/13 02:37:12;;;;;;;24.87;11.20;;;-2.20;99.90;;;;;;4244587;27;20300;-63
2023/03/13 02:39:17;;;;;;;19.97;10.70;;;-2.30;99.90;;;;;;4242031;27;20259;-66
2023/03/13 02:41:20;;;;;;;22.87;10.07;;;-2.30;99.90;;;;;;4240796;27;20275;-68
2023/03/13 02:43:29;;;;;;;20.70;10.47;;;-2.40;99.90;;;;;;4246139;27;20359;-63
2023/03/13 02:45:31;;;;;;;23.40;12.47;;;-2.40;99.90;;;;;;4244519;27;20332;-64
2023/03/13 02:47:32;;;;;;;20.33;9.13;;;-2.50;99.90;;;;;;4243784;27;20267;-64
2023/03/13 02:49:33;;;;;;;19.67;9.70;;;-2.60;99.90;;;;;;4244203;27;20317;-64
2023/03/13 02:51:42;;;;;;;17.07;8.90;;;-2.70;99.90;;;;;;4244924;27;20271;-67
2023/03/13 02:53:45;;;;;;;21.13;10.00;;;-2.80;99.90;;;;;;4227323;28;20309;-70
2023/03/13 02:55:46;;;;;;;17.93;9.30;;;-2.90;99.90;;;;;;4230885;27;20304;-63
2023/03/13 02:57:48;;;;;;;17.63;9.83;;;-3.00;99.90;;;;;;4233479;27;20264;-66
2023/03/13 02:59:49;;;;;;;26.87;9.30;;;-2.90;99.90;;;;;;4228361;28;20275;-67
2023/03/13 03:01:53;;;;;;;15.47;8.43;;;-3.00;99.90;;;;;;4227656;28;20617;-65
2023/03/13 03:03:54;;;;;;;23.47;9.53;;;-3.00;99.90;;;;;;4227728;28;20272;-73
2023/03/13 03:05:55;;;;;;;21.90;10.60;;;-3.00;99.90;;;;;;4227755;28;20248;-66
2023/03/13 03:07:56;;;;;;;19.80;10.30;;;-3.00;99.90;;;;;;4227246;28;20482;-71
2023/03/13 03:09:57;;;;;;;21.27;9.80;;;-3.00;99.90;;;;;;4227943;28;20267;-64
2023/03/13 03:11:58;;;;;;;19.73;10.13;;;-3.00;99.90;;;;;;4227162;28;20328;-70
2023/03/13 03:14:00;;;;;;;17.87;10.13;;;-3.10;99.90;;;;;;4228497;28;20272;-68
2023/03/13 03:16:06;;;;;;;22.63;10.80;;;-3.00;99.90;;;;;;4233158;28;20267;-70
2023/03/13 03:18:07;;;;;;;21.60;11.07;;;-3.10;99.90;;;;;;4244168;27;20786;-64
2023/03/13 03:20:10;;;;;;;23.67;10.73;;;-3.10;99.90;;;;;;4244019;27;20284;-71
2023/03/13 03:22:12;;;;;;;25.03;10.50;;;-3.00;99.90;;;;;;4245142;28;20343;-64
2023/03/13 03:24:13;;;;;;;19.37;9.77;;;-3.00;99.90;;;;;;4244378;28;20277;-66
2023/03/13 03:26:14;;;;;;;21.57;11.03;;;-2.90;99.90;;;;;;4243463;28;20263;-66
2023/03/13 03:28:15;;;;;;;21.20;10.73;;;-2.90;99.90;;;;;;4243870;28;20259;-63
2023/03/13 03:30:16;;;;;;;22.83;10.23;;;-2.80;99.90;;;;;;4245003;28;20263;-63
2023/03/13 03:32:18;;;;;;;22.43;11.27;;;-2.80;99.90;;;;;;4244358;28;20274;-63
2023/03/13 03:34:19;;;;;;;22.77;12.10;;;-2.70;99.90;;;;;;4244496;28;20592;-63
2023/03/13 03:36:22;;;;;;;24.97;10.97;;;-2.70;99.90;;;;;;4243258;27;20747;-63
2023/03/13 03:38:23;;;;;;;29.10;12.13;;;-2.70;99.90;;;;;;4244124;28;20267;-64
2023/03/13 03:40:24;;;;;;;24.73;11.90;;;-2.70;99.90;;;;;;4244781;28;20275;-68
2023/03/13 03:42:25;;;;;;;22.23;11.73;;;-2.70;99.90;;;;;;4240229;28;20283;-64
2023/03/13 03:44:26;;;;;;;25.27;11.60;;;-2.70;99.90;;;;;;4241485;28;20283;-63
2023/03/13 03:46:28;;;;;;;24.77;10.80;;;-2.60;99.90;;;;;;4233140;28;20745;-63
2023/03/13 03:48:29;;;;;;;25.90;12.33;;;-2.60;99.90;;;;;;4227851;28;20272;-63
2023/03/13 03:50:30;;;;;;;23.23;12.43;;;-2.60;99.90;;;;;;4226750;28;20325;-63
2023/03/13 03:52:31;;;;;;;27.57;11.97;;;-2.60;99.90;;;;;;4228100;28;20321;-64
2023/03/13 03:54:33;;;;;;;24.67;12.07;;;-2.60;99.90;;;;;;4226952;28;20387;-67
2023/03/13 03:56:35;;;;;;;28.43;11.20;;;-2.60;99.90;;;;;;4227955;28;20276;-71
2023/03/13 03:58:36;;;;;;;23.97;11.50;;;-2.60;99.90;;;;;;4226970;28;20321;-65
2023/03/13 04:00:37;;;;;;;25.83;12.50;;;-2.60;99.90;;;;;;4228837;28;20272;-66
2023/03/13 04:02:39;;;;;;;28.93;12.30;;;-2.70;99.90;;;;;;4230012;28;20745;-65
2023/03/13 04:04:40;;;;;;;34.37;12.37;;;-2.70;99.90;;;;;;4234034;28;20275;-67
2023/03/13 04:06:41;;;;;;;26.23;11.40;;;-2.70;99.90;;;;;;4230450;27;20324;-67
2023/03/13 04:08:42;;;;;;;32.27;11.53;;;-2.70;99.90;;;;;;4230521;27;20680;-65
2023/03/13 04:10:43;;;;;;;24.13;11.40;;;-2.70;99.90;;;;;;4230535;28;20678;-64
2023/03/13 04:12:45;;;;;;;23.37;11.30;;;-2.70;99.90;;;;;;4229783;28;20276;-64
2023/03/13 04:14:46;;;;;;;24.57;11.47;;;-2.70;99.90;;;;;;4231091;28;21247;-64
2023/03/13 04:16:47;;;;;;;38.37;15.63;;;-2.70;99.90;;;;;;4229951;27;20264;-73
2023/03/13 04:18:48;;;;;;;28.73;13.13;;;-2.60;99.90;;;;;;4230767;27;20662;-66
2023/03/13 04:20:49;;;;;;;30.47;13.57;;;-2.60;99.90;;;;;;4229327;28;20298;-68
2023/03/13 04:22:50;;;;;;;29.17;13.63;;;-2.60;99.90;;;;;;4234570;27;20336;-67
2023/03/13 04:24:52;;;;;;;28.67;12.67;;;-2.60;99.90;;;;;;4246406;27;20272;-68
2023/03/13 04:26:53;;;;;;;29.33;12.27;;;-2.70;99.90;;;;;;4245985;27;20746;-68
2023/03/13 04:28:54;;;;;;;28.27;13.47;;;-2.70;99.90;;;;;;4246722;27;20324;-65
2023/03/13 04:30:57;;;;;;;26.13;12.37;;;-2.70;99.90;;;;;;4247468;27;20665;-72
2023/03/13 04:32:58;;;;;;;22.17;11.50;;;-2.80;99.90;;;;;;4246670;27;20264;-71
2023/03/13 04:34:59;;;;;;;26.90;10.47;;;-2.80;99.90;;;;;;4247026;27;20251;-73
2023/03/13 04:37:00;;;;;;;18.60;10.47;;;-2.80;99.90;;;;;;4246826;27;20256;-65
2023/03/13 04:39:02;;;;;;;24.90;11.57;;;-2.90;99.90;;;;;;4246497;27;20304;-72
2023/03/13 04:41:03;;;;;;;27.80;12.47;;;-2.90;99.90;;;;;;4246698;27;20352;-69
2023/03/13 04:43:04;;;;;;;25.20;10.93;;;-2.90;99.90;;;;;;4246324;27;20345;-72
2023/03/13 04:45:06;;;;;;;24.20;12.27;;;-3.00;99.90;;;;;;4245620;27;20271;-65
2023/03/13 04:47:08;;;;;;;23.70;10.77;;;-2.90;99.90;;;;;;4244377;27;20653;-71
2023/03/13 04:49:09;;;;;;;23.03;11.17;;;-3.00;99.90;;;;;;4239658;27;20313;-70
2023/03/13 04:51:10;;;;;;;29.73;14.10;;;-3.00;99.90;;;;;;4229071;27;20272;-74
2023/03/13 04:53:11;;;;;;;31.50;12.90;;;-3.00;99.90;;;;;;4230142;28;20305;-68
2023/03/13 04:55:12;;;;;;;26.90;12.83;;;-3.00;99.90;;;;;;4229131;28;20268;-71
2023/03/13 04:57:14;;;;;;;31.30;13.63;;;-3.00;99.90;;;;;;4230156;28;20638;-71
2023/03/13 04:59:15;;;;;;;28.90;13.93;;;-3.00;99.90;;;;;;4228973;28;20267;-64
2023/03/13 05:01:16;;;;;;;29.30;14.27;;;-3.00;99.90;;;;;;4236014;27;20279;-64
2023/03/13 05:03:19;;;;;;;36.10;16.13;;;-2.90;99.90;;;;;;4231124;27;20283;-66
2023/03/13 05:05:20;;;;;;;35.80;15.33;;;-2.90;99.90;;;;;;4236386;27;20421;-70
2023/03/13 05:07:21;;;;;;;37.03;15.07;;;-2.90;99.90;;;;;;4231536;27;20646;-70
2023/03/13 05:09:22;;;;;;;33.10;14.02;;;-2.90;99.90;;;;;;4239486;27;20356;-70
2023/03/13 05:11:24;;;;;;;33.87;14.60;;;-2.80;99.90;;;;;;4231006;27;20537;-64
2023/03/13 05:13:25;;;;;;;30.93;15.37;;;-2.70;99.90;;;;;;4245573;27;20734;-71
2023/03/13 05:15:26;;;;;;;34.67;15.23;;;-2.60;99.90;;;;;;4246340;27;20335;-67
2023/03/13 05:17:27;;;;;;;44.97;17.10;;;-2.60;99.90;;;;;;4244623;27;20653;-66
2023/03/13 05:19:28;;;;;;;37.27;16.33;;;-2.60;99.90;;;;;;4246622;27;20833;-68
2023/03/13 05:21:29;;;;;;;36.67;16.83;;;-2.60;99.90;;;;;;4244551;27;20337;-63
2023/03/13 05:23:31;;;;;;;38.20;16.30;;;-2.60;99.90;;;;;;4245872;27;20790;-63
2023/03/13 05:25:32;;;;;;;41.07;17.10;;;-2.50;99.90;;;;;;4245083;27;20328;-66
2023/03/13 05:27:33;;;;;;;36.70;14.80;;;-2.60;99.90;;;;;;4239604;27;20276;-64
2023/03/13 05:29:34;;;;;;;26.70;13.13;;;-2.60;99.90;;;;;;4230671;27;20275;-63
2023/03/13 05:31:35;;;;;;;24.57;10.77;;;-2.60;99.90;;;;;;4229694;27;20268;-64
2023/03/13 05:33:36;;;;;;;28.33;11.60;;;-2.70;99.90;;;;;;4241589;27;20267;-63
2023/03/13 05:35:37;;;;;;;29.53;12.63;;;-2.70;99.90;;;;;;4245808;27;20320;-65
2023/03/13 05:37:39;;;;;;;30.83;14.37;;;-2.80;99.90;;;;;;4244417;27;20275;-63
2023/03/13 05:39:40;;;;;;;145.70;53.13;;;-2.80;99.90;;;;;;4228500;27;20292;-62
2023/03/13 05:41:41;;;;;;;71.37;26.83;;;-2.90;99.90;;;;;;4228640;28;20732;-69
2023/03/13 05:43:42;;;;;;;36.33;17.13;;;-2.90;99.90;;;;;;4228364;28;20280;-69
2023/03/13 05:45:43;;;;;;;34.33;15.33;;;-2.90;99.90;;;;;;4229669;27;20322;-64
2023/03/13 05:47:45;;;;;;;36.27;16.67;;;-2.80;99.90;;;;;;4226971;27;20686;-63
2023/03/13 05:49:46;;;;;;;32.27;16.50;;;-2.80;99.90;;;;;;4229079;27;20280;-63
2023/03/13 05:51:47;;;;;;;38.27;16.77;;;-2.80;99.90;;;;;;4227361;28;20848;-64
2023/03/13 05:53:48;;;;;;;38.53;15.53;;;-2.60;99.90;;;;;;4233726;27;20841;-63
2023/03/13 05:55:49;;;;;;;38.53;16.57;;;-2.50;99.90;;;;;;4244494;27;20283;-62
2023/03/13 05:57:50;;;;;;;39.87;18.53;;;-2.40;99.90;;;;;;4245702;27;20276;-63
2023/03/13 05:59:53;;;;;;;34.90;16.87;;;-2.40;99.90;;;;;;4229178;27;20284;-63
2023/03/13 06:01:54;;;;;;;33.33;15.80;;;-2.30;99.90;;;;;;4240615;27;20275;-63
2023/03/13 06:03:55;;;;;;;45.23;17.77;;;-2.30;99.90;;;;;;4226992;27;20276;-62
2023/03/13 06:05:58;;;;;;;41.50;18.87;;;-2.20;99.90;;;;;;4239329;27;20279;-62
2023/03/13 06:07:59;;;;;;;51.33;18.97;;;-2.10;99.90;;;;;;4230128;27;20248;-63
2023/03/13 06:10:00;;;;;;;67.13;24.23;;;-2.10;99.90;;;;;;4228046;28;20785;-62
2023/03/13 06:12:02;;;;;;;51.67;20.33;;;-2.00;99.90;;;;;;4227603;28;20276;-63
2023/03/13 06:14:03;;;;;;;50.47;21.57;;;-1.90;99.90;;;;;;4227860;28;20272;-63
2023/03/13 06:16:04;;;;;;;47.70;21.77;;;-1.80;99.90;;;;;;4227695;28;20605;-63
2023/03/13 06:18:06;;;;;;;55.63;22.30;;;-1.80;99.90;;;;;;4227140;28;20305;-64
2023/03/13 06:20:07;;;;;;;40.97;17.70;;;-1.70;99.90;;;;;;4227940;28;20716;-63
2023/03/13 06:22:10;;;;;;;40.53;18.60;;;-1.50;99.90;;;;;;4227305;28;20820;-61
2023/03/13 06:24:11;;;;;;;35.03;16.13;;;-1.30;99.90;;;;;;4228186;28;20264;-62
2023/03/13 06:26:12;;;;;;;32.83;15.87;;;-1.10;99.90;;;;;;4227076;28;20271;-64
2023/03/13 06:28:13;;;;;;;30.63;14.87;;;-0.90;99.90;;;;;;4228501;28;20789;-64
2023/03/13 06:30:15;;;;;;;31.00;17.10;;;-0.60;99.90;;;;;;4226407;27;20629;-62
2023/03/13 06:32:16;;;;;;;29.23;14.00;;;-0.30;99.90;;;;;;4228235;28;20348;-63
2023/03/13 06:34:17;;;;;;;33.90;15.67;;;0.10;99.90;;;;;;4227285;28;20341;-65
2023/03/13 06:36:19;;;;;;;35.87;13.83;;;0.50;99.90;;;;;;4228359;27;20285;-64
2023/03/13 06:38:20;;;;;;;31.97;13.53;;;1.40;99.90;;;;;;4227220;28;20658;-62
2023/03/13 06:40:21;;;;;;;29.10;14.23;;;2.00;99.90;;;;;;4228025;28;20317;-63
2023/03/13 06:42:22;;;;;;;28.40;13.60;;;2.50;99.90;;;;;;4227577;28;20280;-64
2023/03/13 06:44:24;;;;;;;25.33;13.17;;;3.20;99.90;;;;;;4227748;28;20280;-63
2023/03/13 06:46:25;;;;;;;25.93;13.97;;;3.60;99.90;;;;;;4228171;28;20272;-64
2023/03/13 06:48:26;;;;;;;27.97;12.80;;;4.00;99.90;;;;;;4226879;28;20260;-63
2023/03/13 06:50:27;;;;;;;34.33;13.63;;;4.10;99.90;;;;;;4227942;28;20792;-62
2023/03/13 06:52:28;;;;;;;21.73;10.30;;;4.40;99.90;;;;;;4227157;28;20631;-63
2023/03/13 06:54:29;;;;;;;15.27;8.30;;;4.20;99.90;;;;;;4228024;28;20272;-63
2023/03/13 06:56:31;;;;;;;25.77;12.30;;;3.60;99.90;;;;;;4227240;28;20344;-62
2023/03/13 06:58:32;;;;;;;31.70;14.80;;;3.40;99.90;;;;;;4228030;28;20256;-63
2023/03/13 07:00:34;;;;;;;32.07;17.03;;;3.10;99.90;;;;;;4226997;28;20329;-63
2023/03/13 07:02:35;;;;;;;33.87;15.67;;;2.80;99.90;;;;;;4228008;28;20748;-62
2023/03/13 07:04:36;;;;;;;45.87;19.00;;;2.50;99.90;;;;;;4226630;28;20264;-62
2023/03/13 07:06:37;;;;;;;47.17;19.47;;;2.20;99.90;;;;;;4228089;28;20268;-64
2023/03/13 07:08:38;;;;;;;30.03;14.27;;;2.10;99.90;;;;;;4227090;28;20236;-64
2023/03/13 07:10:42;;;;;;;29.63;14.00;;;2.10;99.90;;;;;;4227826;28;20298;-64
2023/03/13 07:12:43;;;;;;;29.13;13.43;;;2.20;99.90;;;;;;4227550;28;20316;-63
2023/03/13 07:14:44;;;;;;;35.23;15.30;;;2.30;99.90;;;;;;4227689;28;20662;-62
2023/03/13 07:16:46;;;;;;;36.67;17.17;;;2.50;99.90;;;;;;4227829;28;20337;-63
2023/03/13 07:18:47;;;;;;;24.43;12.87;;;2.90;99.90;;;;;;4226578;28;20260;-67
2023/03/13 07:20:56;;;;;;;25.53;12.73;;;3.00;99.90;;;;;;4227710;28;20280;-62
2023/03/13 07:22:57;;;;;;;17.90;9.10;;;3.10;99.90;;;;;;4226730;28;20283;-62
2023/03/13 07:24:58;;;;;;;23.37;10.90;;;3.10;99.90;;;;;;4228113;28;20264;-62
2023/03/13 07:26:59;;;;;;;27.90;12.03;;;2.70;99.90;;;;;;4227036;28;20321;-64
2023/03/13 07:29:00;;;;;;;21.97;11.20;;;2.70;99.90;;;;;;4227903;28;20638;-64
2023/03/13 07:31:16;;;;;;;19.80;10.63;;;2.80;99.90;;;;;;4226594;28;20329;-66
2023/03/13 07:33:18;;;;;;;27.63;11.60;;;2.70;99.90;;;;;;4228208;28;20730;-64
2023/03/13 07:35:19;;;;;;;23.10;12.13;;;2.70;99.90;;;;;;4226496;28;20605;-62
2023/03/13 07:37:20;;;;;;;27.77;11.53;;;3.00;99.90;;;;;;4227561;28;20597;-62
2023/03/13 07:39:21;;;;;;;21.57;11.20;;;3.00;99.90;;;;;;4226426;28;20646;-62
2023/03/13 07:41:22;;;;;;;12.43;7.73;;;3.10;99.90;;;;;;4229580;28;20272;-63
2023/03/13 07:43:24;;;;;;;13.73;7.47;;;3.10;99.90;;;;;;4229896;28;20295;-62
2023/03/13 07:45:25;;;;;;;16.33;8.07;;;3.30;99.90;;;;;;4230967;28;20288;-63
2023/03/13 07:47:26;;;;;;;18.67;9.00;;;3.60;99.90;;;;;;4230308;28;20280;-63
2023/03/13 07:49:28;;;;;;;19.47;9.03;;;3.50;99.90;;;;;;4230245;28;20666;-64
2023/03/13 07:51:29;;;;;;;13.80;8.17;;;3.60;99.90;;;;;;4230350;28;20654;-62
2023/03/13 07:53:30;;;;;;;15.87;8.30;;;3.50;99.90;;;;;;4229996;28;20276;-63
2023/03/13 07:55:31;;;;;;;17.87;8.30;;;3.40;99.90;;;;;;4230777;28;20271;-66
2023/03/13 07:57:32;;;;;;;22.17;10.47;;;3.30;99.90;;;;;;4229839;27;20383;-62
2023/03/13 07:59:34;;;;;;;24.10;9.60;;;3.20;99.90;;;;;;4230867;28;20337;-63
2023/03/13 08:01:35;;;;;;;19.33;9.73;;;3.10;99.90;;;;;;4229734;28;20256;-64
2023/03/13 08:03:37;;;;;;;16.70;8.30;;;3.10;99.90;;;;;;4230495;28;20283;-62
2023/03/13 08:05:38;;;;;;;17.67;8.30;;;3.00;99.90;;;;;;4229152;28;20585;-63
2023/03/13 08:07:39;;;;;;;17.57;9.37;;;2.90;99.90;;;;;;4230622;27;20264;-63
2023/03/13 08:09:40;;;;;;;18.40;8.43;;;3.00;99.90;;;;;;4229393;28;20298;-63
2023/03/13 08:11:43;;;;;;;18.93;9.83;;;3.20;99.90;;;;;;4230574;28;20337;-62
2023/03/13 08:13:45;;;;;;;15.60;9.00;;;3.30;99.90;;;;;;4229096;27;20336;-62
2023/03/13 08:15:46;;;;;;;19.73;10.43;;;3.30;99.90;;;;;;4230795;28;20280;-63
2023/03/13 08:17:47;;;;;;;18.67;8.93;;;3.30;99.90;;;;;;4229676;27;20331;-62
2023/03/13 08:19:48;;;;;;;19.73;8.67;;;3.30;99.90;;;;;;4229623;28;20280;-63
2023/03/13 08:21:49;;;;;;;12.93;7.20;;;3.40;99.90;;;;;;4229549;28;20264;-63
2023/03/13 08:23:56;;;;;;;14.70;8.40;;;3.50;99.90;;;;;;4229433;28;20775;-64
2023/03/13 08:26:09;;;;;;;16.40;8.57;;;3.60;99.90;;;;;;4229635;28;21314;-63
2023/03/13 08:28:11;;;;;;;15.43;7.17;;;3.70;99.90;;;;;;4229630;27;20317;-64
2023/03/13 08:30:12;;;;;;;14.77;7.53;;;3.80;99.90;;;;;;4230396;28;20321;-63
2023/03/13 08:32:14;;;;;;;13.00;7.77;;;4.00;99.90;;;;;;4229095;28;20276;-64
2023/03/13 08:34:16;;;;;;;9.97;6.60;;;4.20;99.90;;;;;;4230110;28;20321;-62
2023/03/13 08:36:20;;;;;;;13.77;7.07;;;4.50;99.90;;;;;;4228924;28;20268;-63
2023/03/13 08:38:21;;;;;;;8.43;5.47;;;5.00;99.90;;;;;;4230156;28;20330;-64
2023/03/13 08:40:22;;;;;;;16.17;7.67;;;5.20;99.50;;;;;;4228970;28;20376;-63
2023/03/13 08:42:24;;;;;;;10.60;6.73;;;5.30;99.00;;;;;;4230030;28;20272;-62
2023/03/13 08:44:26;;;;;;;12.37;6.53;;;5.30;99.30;;;;;;4228695;28;20329;-65
2023/03/13 08:46:32;;;;;;;16.73;7.97;;;5.50;98.80;;;;;;4230469;28;20305;-63
2023/03/13 08:48:33;;;;;;;12.33;5.80;;;5.50;98.40;;;;;;4229298;27;21381;-64
2023/03/13 08:50:34;;;;;;;7.93;5.30;;;5.50;98.20;;;;;;4229972;28;20336;-63
2023/03/13 08:52:35;;;;;;;7.83;4.83;;;5.30;97.00;;;;;;4227725;28;20877;-64
2023/03/13 08:54:36;;;;;;;9.93;4.70;;;5.20;96.70;;;;;;4229609;28;20256;-63
2023/03/13 08:56:39;;;;;;;8.33;4.53;;;5.30;96.50;;;;;;4229069;28;20264;-63
2023/03/13 08:58:41;;;;;;;9.90;5.67;;;5.40;96.10;;;;;;4229172;28;20280;-63
2023/03/13 09:00:42;;;;;;;7.27;5.30;;;5.40;96.40;;;;;;4229432;28;20302;-64
2023/03/13 09:02:43;;;;;;;8.13;4.90;;;5.70;96.50;;;;;;4229038;27;20730;-64
2023/03/13 09:04:46;;;;;;;11.30;5.33;;;5.90;96.60;;;;;;4229336;28;20314;-63
2023/03/13 09:06:47;;;;;;;10.40;5.53;;;6.10;96.50;;;;;;4228992;27;21089;-63
2023/03/13 09:08:48;;;;;;;7.80;4.97;;;6.40;96.20;;;;;;4229645;28;20276;-63
2023/03/13 09:11:02;;;;;;;7.00;3.87;;;6.50;95.50;;;;;;4228703;27;20832;-63
2023/03/13 09:13:03;;;;;;;7.33;4.50;;;6.50;95.30;;;;;;4229848;27;20313;-66
2023/03/13 09:15:05;;;;;;;9.13;4.77;;;6.60;95.50;;;;;;4228511;28;20317;-63
2023/03/13 09:17:06;;;;;;;7.73;4.70;;;6.70;95.00;;;;;;4229836;28;20556;-63
2023/03/13 09:19:07;;;;;;;8.13;4.20;;;6.80;95.00;;;;;;4228688;27;20036;-62
2023/03/13 09:21:14;;;;;;;8.80;4.77;;;6.60;94.60;;;;;;4229222;28;20053;-62
2023/03/13 09:23:15;;;;;;;7.87;4.60;;;6.60;94.80;;;;;;4228221;28;20475;-64
2023/03/13 09:25:17;;;;;;;6.77;3.93;;;6.70;94.10;;;;;;4229210;28;20260;-62
2023/03/13 09:27:18;;;;;;;11.30;4.80;;;6.60;93.90;;;;;;4228057;28;20501;-63
2023/03/13 09:29:19;;;;;;;8.90;4.17;;;6.60;93.70;;;;;;4229229;28;20036;-63
2023/03/13 09:31:27;;;;;;;10.63;4.93;;;6.80;93.50;;;;;;4228352;28;20061;-63
2023/03/13 09:33:28;;;;;;;7.60;4.43;;;7.10;93.10;;;;;;4228597;28;20039;-63
2023/03/13 09:35:29;;;;;;;8.93;3.83;;;7.20;92.90;;;;;;4227921;28;20348;-64
2023/03/13 09:37:30;;;;;;;5.63;3.33;;;7.30;92.10;;;;;;4228359;28;20028;-63
2023/03/13 09:39:31;;;;;;;7.83;4.00;;;7.30;91.70;;;;;;4228296;28;20506;-63
2023/03/13 09:44:02;;;;;;;6.10;3.83;;;7.30;91.70;;;;;;4407912;22;20079;-63
2023/03/13 09:46:09;;;;;;;9.50;4.03;;;7.20;91.80;;;;;;4161219;28;20034;-63
2023/03/13 09:48:17;;;;;;;7.00;3.70;;;7.30;91.30;;;;;;4162195;28;20029;-64
2023/03/13 09:50:24;;;;;;;5.83;3.57;;;7.30;91.30;;;;;;4159114;28;20045;-64
2023/03/13 09:52:33;;;;;;;5.40;3.73;;;7.30;91.20;;;;;;4161845;28;20033;-66
2023/03/13 09:54:38;;;;;;;8.17;3.77;;;7.40;90.80;;;;;;4161212;28;20052;-64
2023/03/13 09:56:49;;;;;;;6.97;3.93;;;7.40;91.10;;;;;;4162017;28;20029;-65
2023/03/13 09:58:58;;;;;;;6.43;3.80;;;7.50;91.10;;;;;;4160757;28;20139;-64
2023/03/13 10:01:04;;;;;;;5.87;3.67;;;7.70;90.50;;;;;;4161840;28;20091;-65
2023/03/13 10:03:22;;;;;;;7.47;4.10;;;7.70;90.30;;;;;;4160739;28;20483;-64
2023/03/13 10:05:28;;;;;;;8.40;4.07;;;7.70;90.20;;;;;;4161964;28;20041;-65
2023/03/13 10:07:29;;;;;;;6.90;4.47;;;7.70;89.70;;;;;;4160640;28;20037;-63
2023/03/13 10:09:32;;;;;;;4.17;3.30;;;7.70;89.90;;;;;;4161380;28;20107;-65
2023/03/13 10:12:02;;;;;;;7.63;4.00;;;7.80;89.30;;;;;;4160792;28;20497;-65
2023/03/13 10:14:16;;;;;;;9.43;4.70;;;7.80;88.80;;;;;;4161549;28;20099;-65
2023/03/13 10:16:30;;;;;;;6.07;3.50;;;7.90;89.60;;;;;;4160686;28;20079;-64
2023/03/13 10:18:32;;;;;;;7.03;4.00;;;8.10;88.00;;;;;;4161896;28;20034;-63
2023/03/13 10:20:34;;;;;;;8.03;4.50;;;8.20;86.80;;;;;;4160852;28;20029;-64
2023/03/13 10:22:37;;;;;;;10.23;3.80;;;8.10;86.20;;;;;;4161827;28;20099;-64
2023/03/13 10:24:53;;;;;;;4.10;3.07;;;8.10;85.10;;;;;;4160681;28;20045;-65
2023/03/13 10:26:56;;;;;;;9.53;3.40;;;8.00;84.20;;;;;;4161460;28;20088;-66
2023/03/13 10:29:19;;;;;;;7.50;3.37;;;8.00;84.10;;;;;;4160819;28;20037;-63
2023/03/13 10:31:27;;;;;;;4.67;3.20;;;8.00;83.60;;;;;;4161869;28;20473;-64